createdAt,value
2022-07-25T04:02:02.819Z,22.25
2022-07-25T04:04:29.418Z,22.24
2022-07-25T04:06:56.051Z,22.19
2022-07-25T04:09:22.550Z,22.20
2022-07-25T04:11:49.096Z,22.17
2022-07-25T04:14:16.359Z,22.15
2022-07-25T04:16:42.859Z,22.14
2022-07-25T04:19:10.415Z,22.15
2022-07-25T04:21:36.853Z,22.13
2022-07-25T04:24:03.827Z,22.13
2022-07-25T04:26:30.783Z,22.09
2022-07-25T04:28:58.671Z,22.10
2022-07-25T04:31:26.082Z,22.12
2022-07-25T04:33:52.627Z,22.09
2022-07-25T04:36:19.072Z,22.12
2022-07-25T04:38:45.581Z,22.10
2022-07-25T04:41:12.158Z,22.10
2022-07-25T04:43:38.585Z,22.09
2022-07-25T04:46:05.137Z,22.07
2022-07-25T04:48:31.809Z,22.08
2022-07-25T04:50:58.286Z,22.09
2022-07-25T04:53:24.760Z,22.09
2022-07-25T04:55:51.174Z,22.11
2022-07-25T04:58:17.659Z,22.10
2022-07-25T05:00:44.280Z,22.09
2022-07-25T05:03:11.119Z,22.12
2022-07-25T05:05:37.781Z,22.12
2022-07-25T05:08:04.569Z,22.15
2022-07-25T05:10:31.138Z,22.17
2022-07-25T05:12:58.427Z,22.18
2022-07-25T05:15:25.026Z,22.19
2022-07-25T05:17:52.861Z,22.24
2022-07-25T05:20:19.429Z,22.25
2022-07-25T05:22:45.903Z,22.28
2022-07-25T05:25:12.755Z,22.30
2022-07-25T05:27:40.112Z,22.37
2022-07-25T05:30:08.444Z,22.36
2022-07-25T05:32:35.090Z,22.40
2022-07-25T05:35:01.671Z,22.45
2022-07-25T05:37:28.109Z,22.49
2022-07-25T05:39:54.567Z,22.52
2022-07-25T05:42:21.019Z,22.56
2022-07-25T05:44:47.729Z,22.59
2022-07-25T05:47:14.234Z,22.62
2022-07-25T05:49:40.674Z,22.66
2022-07-25T05:52:12.444Z,22.69
2022-07-25T05:54:39.937Z,22.72
2022-07-25T05:57:06.482Z,22.76
2022-07-25T05:59:32.925Z,22.79
2022-07-25T06:02:01.395Z,22.85
2022-07-25T06:04:28.111Z,22.87
2022-07-25T06:06:54.558Z,22.88
2022-07-25T06:09:21.761Z,22.96
2022-07-25T06:11:54.458Z,23.00
2022-07-25T06:14:26.855Z,23.04
2022-07-25T06:16:53.447Z,23.03
2022-07-25T06:19:20.006Z,23.10
2022-07-25T06:21:46.439Z,23.15
2022-07-25T06:24:12.907Z,23.15
2022-07-25T06:26:40.344Z,23.17
2022-07-25T06:29:06.934Z,23.23
2022-07-25T06:31:33.558Z,23.27
2022-07-25T06:34:00.190Z,23.32
2022-07-25T06:36:32.253Z,23.35
2022-07-25T06:38:59.704Z,23.38
2022-07-25T06:41:26.169Z,23.47
2022-07-25T06:43:53.401Z,23.45
2022-07-25T06:46:19.922Z,23.56
2022-07-25T06:48:46.825Z,23.60
2022-07-25T06:51:13.301Z,23.66
2022-07-25T06:53:39.852Z,23.68
2022-07-25T06:56:06.433Z,23.75
2022-07-25T06:58:32.919Z,23.81
2022-07-25T07:01:01.210Z,23.85
2022-07-25T07:03:28.243Z,23.91
2022-07-25T07:05:55.121Z,23.98
2022-07-25T07:08:21.601Z,24.00
2022-07-25T07:10:48.479Z,24.09
2022-07-25T07:13:23.919Z,24.09
2022-07-25T07:15:51.656Z,24.17
2022-07-25T07:18:19.814Z,24.21
2022-07-25T07:20:47.193Z,24.30
2022-07-25T07:23:16.630Z,24.33
2022-07-25T07:25:43.962Z,24.39
2022-07-25T07:28:10.551Z,24.42
2022-07-25T07:31:13.474Z,24.52
2022-07-25T07:33:23.716Z,24.57
2022-07-25T07:35:50.256Z,24.66
2022-07-25T07:38:17.898Z,24.69
2022-07-25T07:40:44.453Z,24.73
2022-07-25T07:43:10.935Z,24.84
2022-07-25T07:45:37.513Z,24.85
2022-07-25T07:48:04.074Z,24.88
2022-07-25T07:50:30.783Z,24.94
2022-07-25T07:52:58.485Z,25.00
2022-07-25T07:55:43.724Z,25.02
2022-07-25T07:58:11.951Z,25.10
2022-07-25T08:00:41.623Z,25.15
2022-07-25T08:03:08.853Z,25.18
2022-07-25T08:05:42.162Z,25.24
2022-07-25T08:08:12.144Z,25.30
2022-07-25T08:10:42.319Z,25.35
2022-07-25T08:13:20.625Z,25.37
2022-07-25T08:15:51.205Z,25.43
2022-07-25T08:18:18.440Z,25.49
2022-07-25T08:20:49.278Z,25.56
2022-07-25T08:23:16.186Z,25.59
2022-07-25T08:25:43.140Z,25.68
2022-07-25T08:28:09.802Z,25.71
2022-07-25T08:30:37.665Z,25.76
2022-07-25T08:33:06.999Z,25.80
2022-07-25T08:35:34.417Z,25.90
2022-07-25T08:38:02.067Z,25.98
2022-07-25T08:40:31.040Z,25.98
2022-07-25T08:42:58.539Z,26.01
2022-07-25T08:45:26.707Z,26.13
2022-07-25T08:47:54.715Z,26.16
2022-07-25T08:50:27.469Z,26.22
2022-07-25T08:53:04.839Z,26.28
2022-07-25T08:55:43.479Z,26.31
2022-07-25T08:58:11.651Z,26.34
2022-07-25T09:00:39.172Z,26.46
2022-07-25T09:03:08.681Z,26.45
2022-07-25T09:05:37.164Z,26.52
2022-07-25T09:08:10.251Z,26.60
2022-07-25T09:10:38.086Z,26.65
2022-07-25T09:13:13.973Z,26.71
2022-07-25T09:15:50.042Z,26.72
2022-07-25T09:18:18.962Z,26.78
2022-07-25T09:20:54.095Z,26.86
2022-07-25T09:23:30.676Z,26.92
2022-07-25T09:26:14.399Z,26.99
2022-07-25T09:28:48.234Z,27.00
2022-07-25T09:31:16.639Z,27.04
2022-07-25T09:33:45.896Z,27.12
2022-07-25T09:36:12.730Z,27.14
2022-07-25T09:38:39.253Z,27.24
2022-07-25T09:41:05.888Z,27.31
2022-07-25T09:43:40.583Z,27.34
2022-07-25T09:46:07.501Z,27.38
2022-07-25T09:48:35.161Z,27.41
2022-07-25T09:51:02.340Z,27.46
2022-07-25T09:53:29.476Z,27.53
2022-07-25T09:55:57.474Z,27.59
2022-07-25T09:58:29.548Z,27.66
2022-07-25T10:01:01.298Z,27.71
2022-07-25T10:03:52.733Z,27.74
2022-07-25T10:06:36.430Z,27.80
2022-07-25T10:09:03.286Z,27.86
2022-07-25T10:11:32.522Z,27.90
2022-07-25T10:14:10.834Z,27.95
2022-07-25T10:16:46.769Z,27.99
2022-07-25T10:19:13.436Z,28.08
2022-07-25T10:21:40.868Z,28.15
2022-07-25T10:24:10.467Z,28.19
2022-07-25T10:26:39.971Z,28.25
2022-07-25T10:29:11.305Z,28.26
2022-07-25T10:31:49.885Z,28.32
2022-07-25T10:34:30.916Z,28.39
2022-07-25T10:37:09.497Z,28.38
2022-07-25T10:39:40.639Z,28.46
2022-07-25T10:42:12.117Z,28.56
2022-07-25T10:44:49.603Z,28.67
2022-07-25T10:47:17.817Z,28.66
2022-07-25T10:50:15.129Z,28.77
2022-07-25T10:52:42.064Z,28.72
2022-07-25T10:55:08.776Z,28.73
2022-07-25T10:57:35.785Z,28.81
2022-07-25T11:00:07.360Z,28.83
2022-07-25T11:02:34.051Z,28.89
2022-07-25T11:05:02.948Z,28.96
2022-07-25T11:07:35.862Z,28.95
2022-07-25T11:10:05.646Z,29.00
2022-07-25T11:12:32.564Z,29.01
2022-07-25T11:15:05.445Z,29.10
2022-07-25T11:17:32.500Z,29.20
2022-07-25T11:20:00.561Z,29.22
2022-07-25T11:22:28.373Z,29.27
2022-07-25T11:24:57.125Z,29.29
2022-07-25T11:27:31.834Z,29.34
2022-07-25T11:30:14.201Z,29.36
2022-07-25T11:32:43.315Z,29.42
2022-07-25T11:35:11.551Z,29.50
2022-07-25T11:37:40.973Z,29.54
2022-07-25T11:40:08.262Z,29.56
2022-07-25T11:42:48.754Z,29.57
2022-07-25T11:45:19.569Z,29.59
2022-07-25T11:47:48.710Z,29.65
2022-07-25T11:50:15.959Z,29.67
2022-07-25T11:52:43.401Z,29.69
2022-07-25T11:55:17.791Z,29.77
2022-07-25T11:57:47.143Z,29.80
2022-07-25T12:00:21.430Z,29.82
2022-07-25T12:02:49.872Z,29.87
2022-07-25T12:05:21.828Z,29.85
2022-07-25T12:07:54.479Z,29.90
2022-07-25T12:10:32.221Z,29.91
2022-07-25T12:13:01.198Z,29.96
2022-07-25T12:15:35.208Z,30.00
2022-07-25T12:18:02.764Z,29.93
2022-07-25T12:20:32.367Z,30.00
2022-07-25T12:23:02.523Z,30.02
2022-07-25T12:25:31.119Z,30.07
2022-07-25T12:27:59.448Z,30.12
2022-07-25T12:30:28.541Z,30.17
2022-07-25T12:32:56.214Z,30.20
2022-07-25T12:35:23.362Z,30.24
2022-07-25T12:37:49.916Z,30.27
2022-07-25T12:40:17.818Z,30.28
2022-07-25T12:42:45.330Z,30.32
2022-07-25T12:45:13.807Z,30.36
2022-07-25T12:47:40.533Z,30.33
2022-07-25T12:50:07.988Z,30.38
2022-07-25T12:52:34.830Z,30.39
2022-07-25T12:55:01.719Z,30.44
2022-07-25T12:57:28.324Z,30.46
2022-07-25T12:59:54.818Z,30.50
2022-07-25T13:02:21.450Z,30.54
2022-07-25T13:04:49.000Z,30.53
2022-07-25T13:07:16.163Z,30.53
2022-07-25T13:09:42.845Z,30.57
2022-07-25T13:12:10.422Z,30.61
2022-07-25T13:14:40.034Z,30.65
2022-07-25T13:17:06.602Z,30.70
2022-07-25T13:19:33.297Z,30.74
2022-07-25T13:21:59.805Z,30.73
2022-07-25T13:24:26.390Z,30.75
2022-07-25T13:26:52.984Z,30.80
2022-07-25T13:29:19.513Z,30.76
2022-07-25T13:31:47.361Z,30.83
2022-07-25T13:34:14.291Z,30.83
2022-07-25T13:36:40.809Z,30.78
2022-07-25T13:39:07.971Z,30.80
2022-07-25T13:41:34.984Z,30.74
2022-07-25T13:44:01.482Z,30.75
2022-07-25T13:46:27.920Z,30.72
2022-07-25T13:48:55.311Z,30.73
2022-07-25T13:51:21.792Z,30.68
2022-07-25T13:53:48.391Z,30.71
2022-07-25T13:56:14.982Z,30.68
2022-07-25T13:58:41.768Z,30.68
2022-07-25T14:01:09.504Z,30.71
2022-07-25T14:03:36.841Z,30.67
2022-07-25T14:06:04.693Z,30.70
2022-07-25T14:08:31.642Z,30.71
2022-07-25T14:10:58.264Z,30.67
2022-07-25T14:13:24.853Z,30.67
2022-07-25T14:15:51.417Z,30.70
2022-07-25T14:18:17.968Z,30.72
2022-07-25T14:20:44.587Z,30.72
2022-07-25T14:23:11.050Z,30.72
2022-07-25T14:25:37.996Z,30.75
2022-07-25T14:28:04.936Z,30.70
2022-07-25T14:30:31.531Z,30.71
2022-07-25T14:32:58.070Z,30.73
2022-07-25T14:35:28.772Z,30.77
2022-07-25T14:37:58.334Z,30.57
2022-07-25T14:40:24.800Z,30.75
2022-07-25T14:42:51.307Z,30.83
2022-07-25T14:45:18.824Z,30.83
2022-07-25T14:47:45.299Z,30.85
2022-07-25T14:50:11.885Z,30.83
2022-07-25T14:52:38.350Z,30.89
2022-07-25T14:55:05.398Z,30.90
2022-07-25T14:57:32.019Z,30.94
2022-07-25T15:00:01.806Z,30.98
2022-07-25T15:02:28.436Z,30.98
2022-07-25T15:04:54.921Z,30.96
2022-07-25T15:07:21.520Z,30.98
2022-07-25T15:09:48.022Z,30.96
2022-07-25T15:12:16.660Z,31.02
2022-07-25T15:14:43.830Z,31.04
2022-07-25T15:17:10.638Z,31.03
2022-07-25T15:19:37.099Z,31.03
2022-07-25T15:22:03.598Z,31.04
2022-07-25T15:24:36.323Z,31.04
2022-07-25T15:27:10.868Z,31.07
2022-07-25T15:29:37.339Z,31.03
2022-07-25T15:32:05.526Z,31.03
2022-07-25T15:34:33.394Z,31.00
2022-07-25T15:36:59.875Z,31.02
2022-07-25T15:39:26.343Z,30.89
2022-07-25T15:41:53.712Z,30.69
2022-07-25T15:44:20.366Z,30.22
2022-07-25T15:46:47.045Z,30.08
2022-07-25T15:49:15.527Z,30.15
2022-07-25T15:51:42.140Z,30.09
2022-07-25T15:54:08.746Z,29.41
2022-07-25T15:56:35.260Z,29.34
2022-07-25T15:59:01.819Z,29.34
2022-07-25T16:01:28.379Z,29.14
2022-07-25T16:03:59.582Z,29.22
2022-07-25T16:06:27.096Z,28.49
2022-07-25T16:08:53.595Z,28.49
2022-07-25T16:11:26.432Z,28.60
2022-07-25T16:13:53.768Z,28.34
2022-07-25T16:16:23.050Z,28.30
2022-07-25T16:18:49.583Z,28.30
2022-07-25T16:21:16.046Z,28.24
2022-07-25T16:23:45.581Z,28.30
2022-07-25T16:26:12.502Z,28.24
2022-07-25T16:28:40.083Z,28.27
2022-07-25T16:31:07.008Z,28.17
2022-07-25T16:33:33.587Z,28.08
2022-07-25T16:36:00.055Z,28.05
2022-07-25T16:38:27.495Z,28.05
2022-07-25T16:40:53.933Z,27.95
2022-07-25T16:43:21.012Z,27.96
2022-07-25T16:45:47.636Z,27.99
2022-07-25T16:48:14.216Z,27.96
2022-07-25T16:50:40.645Z,27.99
2022-07-25T16:53:07.534Z,27.91
2022-07-25T16:55:34.029Z,27.80
2022-07-25T16:58:00.510Z,27.84
2022-07-25T17:00:27.133Z,27.69
2022-07-25T17:02:53.591Z,27.67
2022-07-25T17:05:20.149Z,27.73
2022-07-25T17:07:46.875Z,27.70
2022-07-25T17:10:13.657Z,27.60
2022-07-25T17:12:40.134Z,27.59
2022-07-25T17:15:07.359Z,27.59
2022-07-25T17:17:34.080Z,27.34
2022-07-25T17:20:00.614Z,27.16
2022-07-25T17:22:27.291Z,27.20
2022-07-25T17:24:53.762Z,27.16
2022-07-25T17:27:20.264Z,27.19
2022-07-25T17:29:46.698Z,26.94
2022-07-25T17:32:13.215Z,26.91
2022-07-25T17:34:39.771Z,26.91
2022-07-25T17:37:07.347Z,26.80
2022-07-25T17:39:34.634Z,26.85
2022-07-25T17:42:01.880Z,26.78
2022-07-25T17:44:28.373Z,26.75
2022-07-25T17:46:55.458Z,26.62
2022-07-25T17:49:22.169Z,26.51
2022-07-25T17:51:48.704Z,26.53
2022-07-25T17:54:15.273Z,26.56
2022-07-25T17:56:42.350Z,26.56
2022-07-25T17:59:08.856Z,26.56
2022-07-25T18:01:35.548Z,26.55
2022-07-25T18:04:02.104Z,26.47
2022-07-25T18:06:30.057Z,26.41
2022-07-25T18:08:57.206Z,26.38
2022-07-25T18:11:23.906Z,26.35
2022-07-25T18:13:50.342Z,26.29
2022-07-25T18:16:17.308Z,26.27
2022-07-25T18:18:44.009Z,26.27
2022-07-25T18:21:10.514Z,26.25
2022-07-25T18:23:37.013Z,26.27
2022-07-25T18:26:04.350Z,26.26
2022-07-25T18:28:30.887Z,26.27
2022-07-25T18:30:57.397Z,26.26
2022-07-25T18:33:23.953Z,26.22
2022-07-25T18:35:51.376Z,26.24
2022-07-25T18:38:17.890Z,26.16
2022-07-25T18:40:44.424Z,26.20
2022-07-25T18:43:11.726Z,26.15
2022-07-25T18:45:38.258Z,26.16
2022-07-25T18:48:05.847Z,26.16
2022-07-25T18:50:32.402Z,26.15
2022-07-25T18:52:59.263Z,26.15
2022-07-25T18:55:25.860Z,26.13
2022-07-25T18:57:52.383Z,26.10
2022-07-25T19:00:19.203Z,26.10
2022-07-25T19:02:45.683Z,26.10
2022-07-25T19:05:12.216Z,26.08
2022-07-25T19:07:39.776Z,26.07
2022-07-25T19:10:06.648Z,26.07
2022-07-25T19:12:33.135Z,26.05
2022-07-25T19:14:59.692Z,26.02
2022-07-25T19:17:26.215Z,26.01
2022-07-25T19:19:53.000Z,26.01
2022-07-25T19:22:19.645Z,25.97
2022-07-25T19:24:46.233Z,25.97
2022-07-25T19:27:13.336Z,25.95
2022-07-25T19:29:42.293Z,25.94
2022-07-25T19:32:09.045Z,25.92
2022-07-25T19:34:35.564Z,25.88
2022-07-25T19:37:02.244Z,25.88
2022-07-25T19:39:28.855Z,25.82
2022-07-25T19:41:55.360Z,25.83
2022-07-25T19:44:21.830Z,25.79
2022-07-25T19:46:49.463Z,25.77
2022-07-25T19:49:16.425Z,25.75
2022-07-25T19:51:42.953Z,25.72
2022-07-25T19:54:10.011Z,25.66
2022-07-25T19:56:36.873Z,25.67
2022-07-25T19:59:03.745Z,25.65
2022-07-25T20:01:35.434Z,25.58
2022-07-25T20:04:03.099Z,25.54
2022-07-25T20:06:29.585Z,25.57
2022-07-25T20:08:56.150Z,25.54
2022-07-25T20:11:22.661Z,25.51
2022-07-25T20:13:49.216Z,25.47
2022-07-25T20:16:15.724Z,25.43
2022-07-25T20:18:42.995Z,25.41
2022-07-25T20:21:11.282Z,25.38
2022-07-25T20:23:40.571Z,25.30
2022-07-25T20:26:12.658Z,25.28
2022-07-25T20:28:42.892Z,25.29
2022-07-25T20:31:09.615Z,25.25
2022-07-25T20:33:36.144Z,25.21
2022-07-25T20:36:03.238Z,25.20
2022-07-25T20:38:31.038Z,25.13
2022-07-25T20:40:58.072Z,25.14
2022-07-25T20:43:25.090Z,25.09
2022-07-25T20:45:51.986Z,25.02
2022-07-25T20:48:18.691Z,25.03
2022-07-25T20:50:45.362Z,24.95
2022-07-25T20:53:12.269Z,24.94
2022-07-25T20:55:38.855Z,24.90
2022-07-25T20:58:05.431Z,24.88
2022-07-25T21:00:32.353Z,24.85
2022-07-25T21:02:59.494Z,24.82
2022-07-25T21:05:26.536Z,24.79
2022-07-25T21:07:53.209Z,24.74
2022-07-25T21:10:20.375Z,24.72
2022-07-25T21:12:47.008Z,24.68
2022-07-25T21:15:13.635Z,24.63
2022-07-25T21:17:41.567Z,24.58
2022-07-25T21:20:10.629Z,24.55
2022-07-25T21:22:37.310Z,24.53
2022-07-25T21:25:04.357Z,24.48
2022-07-25T21:27:30.856Z,24.48
2022-07-25T21:29:57.349Z,24.45
2022-07-25T21:32:23.917Z,24.42
2022-07-25T21:34:51.520Z,24.38
2022-07-25T21:37:18.117Z,24.31
2022-07-25T21:39:45.844Z,24.32
2022-07-25T21:42:12.412Z,24.28
2022-07-25T21:44:40.444Z,24.25
2022-07-25T21:47:07.717Z,24.20
2022-07-25T21:49:53.557Z,24.17
2022-07-25T21:52:26.624Z,24.14
2022-07-25T21:55:01.722Z,24.11
2022-07-25T21:57:28.176Z,24.08
2022-07-25T21:59:54.999Z,24.03
